createdAt,value
2018-12-31T00:01:12.020Z,5.43
2018-12-31T00:05:19.638Z,7.40
2018-12-31T00:09:27.017Z,8.43
2018-12-31T00:13:34.295Z,8.73
2018-12-31T00:17:41.020Z,7.30
2018-12-31T00:21:47.759Z,8.13
2018-12-31T00:25:56.714Z,8.60
2018-12-31T00:30:03.097Z,7.87
2018-12-31T00:34:10.135Z,4.90
2018-12-31T00:39:15.448Z,7.47
2018-12-31T00:43:24.976Z,6.50
2018-12-31T00:47:31.794Z,4.50
2018-12-31T00:51:43.635Z,5.80
2018-12-31T00:55:51.401Z,5.87
2018-12-31T00:59:57.943Z,3.13
2018-12-31T01:04:04.510Z,4.60
2018-12-31T01:08:12.638Z,4.43
2018-12-31T01:12:19.857Z,5.17
2018-12-31T01:16:26.539Z,5.30
2018-12-31T01:20:37.324Z,4.43
2018-12-31T01:24:47.839Z,4.57
2018-12-31T01:29:01.762Z,5.20
2018-12-31T01:33:07.799Z,4.63
2018-12-31T01:37:18.408Z,4.73
2018-12-31T01:41:28.828Z,5.57
2018-12-31T01:45:36.239Z,6.40
2018-12-31T01:49:51.389Z,6.20
2018-12-31T01:54:05.964Z,6.23
2018-12-31T01:58:13.382Z,7.20
2018-12-31T02:02:21.988Z,6.23
2018-12-31T02:06:31.539Z,8.23
2018-12-31T02:10:40.292Z,7.73
2018-12-31T02:18:55.817Z,7.43
2018-12-31T02:23:06.502Z,7.60
2018-12-31T02:27:35.203Z,6.63
2018-12-31T02:31:43.747Z,4.90
2018-12-31T02:35:52.476Z,6.57
2018-12-31T02:39:58.922Z,7.03
2018-12-31T02:44:05.348Z,7.90
2018-12-31T02:48:11.121Z,7.63
2018-12-31T02:52:18.028Z,8.20
2018-12-31T02:56:25.571Z,8.93
2018-12-31T03:00:34.352Z,6.50
2018-12-31T03:04:43.287Z,8.07
2018-12-31T03:08:52.100Z,6.83
2018-12-31T03:12:58.511Z,9.10
2018-12-31T03:17:05.279Z,6.83
2018-12-31T03:21:13.342Z,6.73
2018-12-31T03:25:20.225Z,5.87
2018-12-31T03:29:27.842Z,7.00
2018-12-31T03:33:40.160Z,6.80
2018-12-31T03:37:46.633Z,5.87
2018-12-31T03:42:14.484Z,3.53
2018-12-31T03:46:20.942Z,4.23
2018-12-31T03:50:30.534Z,4.67
2018-12-31T03:54:36.835Z,5.10
2018-12-31T03:58:44.171Z,3.20
2018-12-31T04:02:51.403Z,4.00
2018-12-31T04:06:58.118Z,3.97
2018-12-31T04:11:04.790Z,3.83
2018-12-31T04:15:12.682Z,2.80
2018-12-31T04:19:19.215Z,3.33
2018-12-31T04:23:26.147Z,3.40
2018-12-31T04:27:38.044Z,2.83
2018-12-31T04:31:45.817Z,3.10
2018-12-31T04:35:58.144Z,2.73
2018-12-31T04:40:06.684Z,1.63
2018-12-31T04:44:15.354Z,2.13
2018-12-31T04:48:28.062Z,3.70
2018-12-31T04:52:34.536Z,3.07
2018-12-31T04:56:49.739Z,3.10
2018-12-31T05:00:56.076Z,3.80
2018-12-31T05:05:24.674Z,2.63
2018-12-31T05:09:31.138Z,3.33
2018-12-31T05:13:37.668Z,2.50
2018-12-31T05:17:45.509Z,2.47
2018-12-31T05:21:52.038Z,2.37
2018-12-31T05:26:02.693Z,2.23
2018-12-31T05:30:09.127Z,2.23
2018-12-31T05:34:17.869Z,2.23
2018-12-31T05:38:28.521Z,2.33
2018-12-31T05:42:35.574Z,1.70
2018-12-31T05:46:45.878Z,1.27
2018-12-31T05:50:55.960Z,1.10
2018-12-31T05:55:03.279Z,1.70
2018-12-31T05:59:13.290Z,1.50
2018-12-31T06:03:21.412Z,1.10
2018-12-31T06:07:31.984Z,1.30
2018-12-31T06:11:41.835Z,1.20
2018-12-31T06:15:49.725Z,1.10
2018-12-31T06:19:57.549Z,1.10
2018-12-31T06:24:03.914Z,1.50
2018-12-31T06:28:11.548Z,1.13
2018-12-31T06:32:20.392Z,0.87
2018-12-31T06:36:26.747Z,1.10
2018-12-31T06:40:55.229Z,0.90
2018-12-31T06:45:03.074Z,1.20
2018-12-31T06:49:11.617Z,1.07
2018-12-31T06:53:19.388Z,1.40
2018-12-31T06:57:30.647Z,1.33
2018-12-31T07:01:39.126Z,1.67
2018-12-31T07:05:50.675Z,1.27
2018-12-31T07:09:55.975Z,1.33
2018-12-31T07:14:02.531Z,1.20
2018-12-31T07:18:12.409Z,1.40
2018-12-31T07:22:18.758Z,1.67
2018-12-31T07:26:25.229Z,1.30
2018-12-31T07:30:31.195Z,1.30
2018-12-31T07:34:37.929Z,1.53
2018-12-31T07:38:45.376Z,1.63
2018-12-31T07:42:55.436Z,1.80
2018-12-31T07:47:02.144Z,2.10
2018-12-31T07:51:10.508Z,2.07
2018-12-31T07:55:17.284Z,2.00
2018-12-31T07:59:23.726Z,2.10
2018-12-31T08:03:32.240Z,2.00
2018-12-31T08:07:40.169Z,1.90
2018-12-31T08:11:46.630Z,1.77
2018-12-31T08:16:16.653Z,1.57
2018-12-31T08:20:23.105Z,2.17
2018-12-31T08:24:36.912Z,2.00
2018-12-31T08:32:57.812Z,2.30
2018-12-31T08:37:05.926Z,2.23
2018-12-31T08:41:15.619Z,2.10
2018-12-31T08:45:30.769Z,1.93
2018-12-31T08:49:40.663Z,2.07
2018-12-31T08:53:47.143Z,2.00
2018-12-31T08:57:56.226Z,2.40
2018-12-31T09:02:03.105Z,2.43
2018-12-31T09:06:16.023Z,1.97
2018-12-31T09:10:23.571Z,2.43
2018-12-31T09:14:30.371Z,1.90
2018-12-31T09:18:38.564Z,1.93
2018-12-31T09:22:46.288Z,2.30
2018-12-31T09:26:56.848Z,2.63
2018-12-31T09:31:17.666Z,2.60
2018-12-31T09:35:24.476Z,2.80
2018-12-31T09:39:32.049Z,2.33
2018-12-31T09:43:39.944Z,1.83
2018-12-31T09:47:51.442Z,2.07
2018-12-31T09:51:58.837Z,2.40
2018-12-31T09:56:07.819Z,2.20
2018-12-31T10:00:28.418Z,1.70
2018-12-31T10:04:34.759Z,1.63
2018-12-31T10:08:49.415Z,2.13
2018-12-31T10:12:56.158Z,2.50
2018-12-31T10:17:03.775Z,2.17
2018-12-31T10:21:10.215Z,2.20
2018-12-31T10:29:47.289Z,2.23
2018-12-31T10:33:53.739Z,2.60
2018-12-31T10:38:01.832Z,2.20
2018-12-31T10:42:12.132Z,2.30
2018-12-31T10:46:20.403Z,1.60
2018-12-31T10:54:51.598Z,2.30
2018-12-31T10:58:59.312Z,2.60
2018-12-31T11:03:08.660Z,2.70
2018-12-31T11:07:15.752Z,2.10
2018-12-31T11:11:22.208Z,1.97
2018-12-31T11:15:50.061Z,2.30
2018-12-31T11:19:57.904Z,2.37
2018-12-31T11:24:09.150Z,2.27
2018-12-31T11:28:16.044Z,1.80
2018-12-31T11:32:24.764Z,2.90
2018-12-31T11:41:40.049Z,2.17
2018-12-31T11:45:46.635Z,2.10
2018-12-31T11:49:59.699Z,2.93
2018-12-31T11:54:10.365Z,3.40
2018-12-31T11:58:16.740Z,3.90
2018-12-31T12:12:16.135Z,3.13
2018-12-31T12:16:22.765Z,4.33
2018-12-31T12:20:35.945Z,3.90
2018-12-31T12:24:42.593Z,3.10
2018-12-31T12:28:59.412Z,3.47
2018-12-31T12:33:07.373Z,3.50
2018-12-31T12:37:17.340Z,3.43
2018-12-31T12:41:41.405Z,3.73
2018-12-31T12:45:51.236Z,3.60
2018-12-31T12:49:59.449Z,3.60
2018-12-31T13:03:47.463Z,2.93
2018-12-31T13:07:57.856Z,2.30
2018-12-31T13:12:13.325Z,2.50
2018-12-31T13:16:31.346Z,2.53
2018-12-31T13:20:40.953Z,2.70
2018-12-31T13:25:06.870Z,3.07
2018-12-31T13:29:15.180Z,2.77
2018-12-31T13:33:22.733Z,2.87
2018-12-31T13:37:36.333Z,1.70
2018-12-31T13:41:43.113Z,1.67
2018-12-31T13:45:53.286Z,2.30
2018-12-31T13:49:59.771Z,2.20
2018-12-31T13:54:30.633Z,2.40
2018-12-31T13:58:38.695Z,2.03
2018-12-31T14:02:46.078Z,2.40
2018-12-31T14:06:56.592Z,2.70
2018-12-31T14:11:08.365Z,3.20
2018-12-31T14:15:16.583Z,2.80
2018-12-31T14:19:27.840Z,3.10
2018-12-31T14:23:35.517Z,2.97
2018-12-31T14:27:42.819Z,3.13
2018-12-31T14:31:50.608Z,3.83
2018-12-31T14:35:57.799Z,3.60
2018-12-31T14:40:08.247Z,3.70
2018-12-31T14:44:16.917Z,4.40
2018-12-31T14:48:26.814Z,3.73
2018-12-31T14:56:42.644Z,4.07
2018-12-31T15:00:51.268Z,4.57
2018-12-31T15:04:59.168Z,5.00
2018-12-31T15:09:08.405Z,4.60
2018-12-31T15:13:19.122Z,4.73
2018-12-31T15:17:26.229Z,4.67
2018-12-31T15:21:39.792Z,4.13
2018-12-31T15:25:46.600Z,5.23
2018-12-31T15:34:04.215Z,3.80
2018-12-31T15:38:11.187Z,4.23
2018-12-31T15:42:21.329Z,2.77
2018-12-31T15:55:30.255Z,3.53
2018-12-31T15:59:37.782Z,4.90
2018-12-31T16:03:51.143Z,5.83
2018-12-31T16:08:02.732Z,3.53
2018-12-31T16:12:10.940Z,4.70
2018-12-31T16:16:26.182Z,3.60
2018-12-31T16:20:34.007Z,4.20
2018-12-31T16:24:44.057Z,3.70
2018-12-31T16:28:55.398Z,3.57
2018-12-31T16:33:02.521Z,4.13
2018-12-31T16:37:09.217Z,4.80
2018-12-31T16:41:23.338Z,7.03
2018-12-31T16:45:29.674Z,5.70
2018-12-31T16:49:36.934Z,4.90
2018-12-31T16:54:18.528Z,5.53
2018-12-31T16:58:35.957Z,6.10
2018-12-31T17:02:42.852Z,8.13
2018-12-31T17:06:49.511Z,9.97
2018-12-31T17:10:57.454Z,12.63
2018-12-31T17:15:17.235Z,15.27
2018-12-31T17:19:25.686Z,16.37
2018-12-31T17:23:32.910Z,16.77
2018-12-31T17:27:40.758Z,17.47
2018-12-31T17:31:48.114Z,17.03
2018-12-31T17:35:54.659Z,18.63
2018-12-31T17:44:16.013Z,15.77
2018-12-31T17:48:23.292Z,15.87
2018-12-31T17:52:31.740Z,14.83
2018-12-31T17:56:38.642Z,12.43
2018-12-31T18:00:46.045Z,12.83
2018-12-31T18:04:53.519Z,13.30
2018-12-31T18:09:02.792Z,12.23
2018-12-31T18:13:08.916Z,12.90
2018-12-31T18:17:16.106Z,15.03
2018-12-31T18:21:27.469Z,15.47
2018-12-31T18:25:36.464Z,14.83
2018-12-31T18:29:46.593Z,13.30
2018-12-31T18:33:53.272Z,16.60
2018-12-31T18:38:02.920Z,15.77
2018-12-31T18:42:09.504Z,11.67
2018-12-31T18:46:16.947Z,11.77
2018-12-31T18:50:23.930Z,12.17
2018-12-31T18:54:31.783Z,11.50
2018-12-31T18:58:39.577Z,11.80
2018-12-31T19:02:46.137Z,11.67
2018-12-31T19:06:57.400Z,12.40
2018-12-31T19:11:07.370Z,11.47
2018-12-31T19:19:26.602Z,13.90
2018-12-31T19:23:35.538Z,14.00
2018-12-31T19:27:42.238Z,13.43
2018-12-31T19:31:49.671Z,14.63
2018-12-31T19:36:01.651Z,11.80
2018-12-31T19:40:10.910Z,10.60
2018-12-31T19:44:18.700Z,11.87
2018-12-31T19:48:28.339Z,9.57
2018-12-31T19:52:41.309Z,11.57
2018-12-31T19:56:50.175Z,11.57
2018-12-31T20:01:01.806Z,10.80
2018-12-31T20:05:16.721Z,11.27
2018-12-31T20:09:23.918Z,12.07
2018-12-31T20:13:35.950Z,12.00
2018-12-31T20:17:42.613Z,13.87
2018-12-31T20:21:51.680Z,12.80
2018-12-31T20:26:06.178Z,13.87
2018-12-31T20:30:15.585Z,11.97
2018-12-31T20:34:23.227Z,14.77
2018-12-31T20:38:51.227Z,15.47
2018-12-31T20:42:58.441Z,13.40
2018-12-31T20:47:05.184Z,12.93
2018-12-31T20:51:13.408Z,14.90
2018-12-31T20:55:21.337Z,15.20
2018-12-31T21:03:41.931Z,18.43
2018-12-31T21:07:53.032Z,16.43
2018-12-31T21:12:01.053Z,18.70
2018-12-31T21:16:10.286Z,17.20
2018-12-31T21:20:20.938Z,17.40
2018-12-31T21:24:29.280Z,17.43
2018-12-31T21:28:41.266Z,16.27
2018-12-31T21:32:48.975Z,14.60
2018-12-31T21:36:57.505Z,16.90
2018-12-31T21:41:10.158Z,18.67
2018-12-31T21:45:16.790Z,20.33
2018-12-31T21:49:23.400Z,23.27
2018-12-31T21:53:36.049Z,25.90
2018-12-31T21:57:46.872Z,27.47
2018-12-31T22:01:53.479Z,28.17
2018-12-31T22:06:05.496Z,25.80
2018-12-31T22:10:15.170Z,25.00
2018-12-31T22:14:23.248Z,23.27
2018-12-31T22:18:31.563Z,24.40
2018-12-31T22:22:42.679Z,23.97
2018-12-31T22:26:51.624Z,26.37
2018-12-31T22:31:04.082Z,26.17
2018-12-31T22:35:14.476Z,27.67
2018-12-31T22:39:22.770Z,27.80
2018-12-31T22:43:32.312Z,27.00
2018-12-31T22:51:50.154Z,25.67
2018-12-31T22:56:00.875Z,26.43
2018-12-31T23:00:09.796Z,28.13
2018-12-31T23:04:42.006Z,27.80
2018-12-31T23:08:51.448Z,43.80
2018-12-31T23:12:58.530Z,64.93
2018-12-31T23:17:11.061Z,88.90
2018-12-31T23:21:17.499Z,66.07
2018-12-31T23:25:25.317Z,52.57
2018-12-31T23:29:32.826Z,41.70
2018-12-31T23:34:04.932Z,43.23
2018-12-31T23:38:18.438Z,42.43
2018-12-31T23:42:30.012Z,43.37
2018-12-31T23:46:36.654Z,43.83
2018-12-31T23:51:06.121Z,44.17
2018-12-31T23:55:19.824Z,35.00
2018-12-31T23:59:27.277Z,40.00
